sensor_id;sensor_type;location;lat;lon;timestamp;P1;durP1;ratioP1;P2;durP2;ratioP2
80705;SDS011;70229;48.010;7.852;2024-03-29T00:00:25;1.05;;;0.43;;
80705;SDS011;70229;48.010;7.852;2024-03-29T00:02:51;1.33;;;0.40;;
80705;SDS011;70229;48.010;7.852;2024-03-29T00:05:17;1.90;;;0.25;;
80705;SDS011;70229;48.010;7.852;2024-03-29T00:07:42;3.13;;;0.80;;
80705;SDS011;70229;48.010;7.852;2024-03-29T00:10:08;1.02;;;0.40;;
80705;SDS011;70229;48.010;7.852;2024-03-29T00:12:34;1.55;;;0.73;;
80705;SDS011;70229;48.010;7.852;2024-03-29T00:14:59;0.85;;;0.22;;
80705;SDS011;70229;48.010;7.852;2024-03-29T00:17:25;0.95;;;0.32;;
80705;SDS011;70229;48.010;7.852;2024-03-29T00:19:50;1.27;;;0.22;;
80705;SDS011;70229;48.010;7.852;2024-03-29T00:22:16;2.38;;;0.82;;
80705;SDS011;70229;48.010;7.852;2024-03-29T00:24:41;0.65;;;0.22;;
80705;SDS011;70229;48.010;7.852;2024-03-29T00:27:07;1.25;;;0.30;;
80705;SDS011;70229;48.010;7.852;2024-03-29T00:29:33;2.15;;;0.50;;
80705;SDS011;70229;48.010;7.852;2024-03-29T00:31:59;0.43;;;0.28;;
80705;SDS011;70229;48.010;7.852;2024-03-29T00:34:25;0.38;;;0.30;;
80705;SDS011;70229;48.010;7.852;2024-03-29T00:36:50;0.30;;;0.20;;
80705;SDS011;70229;48.010;7.852;2024-03-29T00:39:17;1.52;;;0.30;;
80705;SDS011;70229;48.010;7.852;2024-03-29T00:41:43;0.80;;;0.20;;
80705;SDS011;70229;48.010;7.852;2024-03-29T00:44:08;1.50;;;0.30;;
80705;SDS011;70229;48.010;7.852;2024-03-29T00:46:34;0.32;;;0.20;;
80705;SDS011;70229;48.010;7.852;2024-03-29T00:49:00;1.33;;;0.20;;
80705;SDS011;70229;48.010;7.852;2024-03-29T00:51:25;0.43;;;0.20;;
80705;SDS011;70229;48.010;7.852;2024-03-29T00:53:51;0.50;;;0.30;;
80705;SDS011;70229;48.010;7.852;2024-03-29T00:56:17;1.17;;;0.60;;
80705;SDS011;70229;48.010;7.852;2024-03-29T00:58:42;0.65;;;0.10;;
80705;SDS011;70229;48.010;7.852;2024-03-29T01:01:08;1.75;;;0.50;;
80705;SDS011;70229;48.010;7.852;2024-03-29T01:03:33;0.60;;;0.20;;
80705;SDS011;70229;48.010;7.852;2024-03-29T01:05:59;1.33;;;0.30;;
80705;SDS011;70229;48.010;7.852;2024-03-29T01:08:25;1.85;;;0.60;;
80705;SDS011;70229;48.010;7.852;2024-03-29T01:10:50;1.50;;;0.95;;
80705;SDS011;70229;48.010;7.852;2024-03-29T01:13:16;2.97;;;0.35;;
80705;SDS011;70229;48.010;7.852;2024-03-29T01:15:41;2.50;;;0.55;;
80705;SDS011;70229;48.010;7.852;2024-03-29T01:18:07;1.15;;;0.20;;
80705;SDS011;70229;48.010;7.852;2024-03-29T01:20:32;0.77;;;0.20;;
80705;SDS011;70229;48.010;7.852;2024-03-29T01:22:58;1.83;;;0.50;;
80705;SDS011;70229;48.010;7.852;2024-03-29T01:25:24;0.65;;;0.25;;
80705;SDS011;70229;48.010;7.852;2024-03-29T01:27:49;0.65;;;0.28;;
80705;SDS011;70229;48.010;7.852;2024-03-29T01:30:15;1.52;;;0.45;;
80705;SDS011;70229;48.010;7.852;2024-03-29T01:32:41;0.73;;;0.30;;
80705;SDS011;70229;48.010;7.852;2024-03-29T01:35:06;0.70;;;0.38;;
80705;SDS011;70229;48.010;7.852;2024-03-29T01:37:32;0.20;;;0.20;;
80705;SDS011;70229;48.010;7.852;2024-03-29T01:39:59;2.70;;;0.60;;
80705;SDS011;70229;48.010;7.852;2024-03-29T01:42:24;0.45;;;0.20;;
80705;SDS011;70229;48.010;7.852;2024-03-29T01:44:50;0.25;;;0.20;;
80705;SDS011;70229;48.010;7.852;2024-03-29T01:47:16;2.05;;;0.20;;
80705;SDS011;70229;48.010;7.852;2024-03-29T01:49:43;4.72;;;0.50;;
80705;SDS011;70229;48.010;7.852;2024-03-29T01:52:10;0.73;;;0.30;;
80705;SDS011;70229;48.010;7.852;2024-03-29T01:54:37;3.25;;;0.30;;
80705;SDS011;70229;48.010;7.852;2024-03-29T01:57:03;0.75;;;0.30;;
80705;SDS011;70229;48.010;7.852;2024-03-29T01:59:29;0.85;;;0.22;;
80705;SDS011;70229;48.010;7.852;2024-03-29T02:01:57;0.73;;;0.22;;
80705;SDS011;70229;48.010;7.852;2024-03-29T02:04:23;0.32;;;0.25;;
80705;SDS011;70229;48.010;7.852;2024-03-29T02:06:49;1.50;;;0.60;;
80705;SDS011;70229;48.010;7.852;2024-03-29T02:09:15;3.95;;;0.73;;
80705;SDS011;70229;48.010;7.852;2024-03-29T02:11:40;1.35;;;0.60;;
80705;SDS011;70229;48.010;7.852;2024-03-29T02:14:06;0.45;;;0.20;;
80705;SDS011;70229;48.010;7.852;2024-03-29T02:16:32;0.60;;;0.30;;
80705;SDS011;70229;48.010;7.852;2024-03-29T02:18:58;0.30;;;0.20;;
80705;SDS011;70229;48.010;7.852;2024-03-29T02:21:23;0.75;;;0.20;;
80705;SDS011;70229;48.010;7.852;2024-03-29T02:23:56;1.05;;;0.20;;
80705;SDS011;70229;48.010;7.852;2024-03-29T02:26:26;2.78;;;0.40;;
80705;SDS011;70229;48.010;7.852;2024-03-29T02:28:56;1.75;;;0.32;;
80705;SDS011;70229;48.010;7.852;2024-03-29T02:31:22;0.55;;;0.25;;
80705;SDS011;70229;48.010;7.852;2024-03-29T02:33:47;0.38;;;0.20;;
80705;SDS011;70229;48.010;7.852;2024-03-29T02:36:13;0.95;;;0.20;;
80705;SDS011;70229;48.010;7.852;2024-03-29T02:38:39;1.63;;;0.55;;
80705;SDS011;70229;48.010;7.852;2024-03-29T02:41:04;0.30;;;0.20;;
80705;SDS011;70229;48.010;7.852;2024-03-29T02:43:31;1.35;;;0.60;;
80705;SDS011;70229;48.010;7.852;2024-03-29T02:45:56;0.70;;;0.35;;
80705;SDS011;70229;48.010;7.852;2024-03-29T02:48:22;2.05;;;0.20;;
80705;SDS011;70229;48.010;7.852;2024-03-29T02:50:47;0.90;;;0.22;;
80705;SDS011;70229;48.010;7.852;2024-03-29T02:53:13;0.22;;;0.13;;
80705;SDS011;70229;48.010;7.852;2024-03-29T02:55:40;2.83;;;0.60;;
80705;SDS011;70229;48.010;7.852;2024-03-29T02:58:06;0.93;;;0.38;;
80705;SDS011;70229;48.010;7.852;2024-03-29T03:00:32;2.05;;;0.38;;
80705;SDS011;70229;48.010;7.852;2024-03-29T03:02:58;1.17;;;0.30;;
80705;SDS011;70229;48.010;7.852;2024-03-29T03:05:23;0.63;;;0.25;;
80705;SDS011;70229;48.010;7.852;2024-03-29T03:07:49;0.22;;;0.15;;
80705;SDS011;70229;48.010;7.852;2024-03-29T03:10:33;1.02;;;0.40;;
80705;SDS011;70229;48.010;7.852;2024-03-29T03:13:17;0.85;;;0.52;;
80705;SDS011;70229;48.010;7.852;2024-03-29T03:15:43;0.57;;;0.25;;
80705;SDS011;70229;48.010;7.852;2024-03-29T03:18:08;1.05;;;0.20;;
80705;SDS011;70229;48.010;7.852;2024-03-29T03:20:34;0.57;;;0.38;;
80705;SDS011;70229;48.010;7.852;2024-03-29T03:23:00;0.57;;;0.43;;
80705;SDS011;70229;48.010;7.852;2024-03-29T03:25:26;0.40;;;0.20;;
80705;SDS011;70229;48.010;7.852;2024-03-29T03:27:52;0.85;;;0.40;;
80705;SDS011;70229;48.010;7.852;2024-03-29T03:30:18;1.35;;;0.35;;
80705;SDS011;70229;48.010;7.852;2024-03-29T03:32:44;2.30;;;0.30;;
80705;SDS011;70229;48.010;7.852;2024-03-29T03:35:09;4.03;;;0.40;;
80705;SDS011;70229;48.010;7.852;2024-03-29T03:37:35;1.20;;;0.38;;
80705;SDS011;70229;48.010;7.852;2024-03-29T03:40:01;0.30;;;0.20;;
80705;SDS011;70229;48.010;7.852;2024-03-29T03:42:26;3.22;;;0.38;;
80705;SDS011;70229;48.010;7.852;2024-03-29T03:44:52;2.15;;;0.30;;
80705;SDS011;70229;48.010;7.852;2024-03-29T03:47:17;0.43;;;0.30;;
80705;SDS011;70229;48.010;7.852;2024-03-29T03:49:43;0.20;;;0.20;;
80705;SDS011;70229;48.010;7.852;2024-03-29T03:52:09;0.45;;;0.22;;
80705;SDS011;70229;48.010;7.852;2024-03-29T03:54:34;1.98;;;0.30;;
80705;SDS011;70229;48.010;7.852;2024-03-29T03:57:00;0.40;;;0.20;;
80705;SDS011;70229;48.010;7.852;2024-03-29T03:59:25;0.90;;;0.47;;
80705;SDS011;70229;48.010;7.852;2024-03-29T04:01:51;0.20;;;0.20;;
80705;SDS011;70229;48.010;7.852;2024-03-29T04:04:17;1.17;;;0.20;;
80705;SDS011;70229;48.010;7.852;2024-03-29T04:06:43;0.47;;;0.20;;
80705;SDS011;70229;48.010;7.852;2024-03-29T04:09:09;0.70;;;0.35;;
80705;SDS011;70229;48.010;7.852;2024-03-29T04:11:35;0.20;;;0.20;;
80705;SDS011;70229;48.010;7.852;2024-03-29T04:14:00;0.75;;;0.20;;
80705;SDS011;70229;48.010;7.852;2024-03-29T04:16:26;0.20;;;0.20;;
80705;SDS011;70229;48.010;7.852;2024-03-29T04:18:51;0.25;;;0.20;;
80705;SDS011;70229;48.010;7.852;2024-03-29T04:21:17;0.60;;;0.20;;
80705;SDS011;70229;48.010;7.852;2024-03-29T04:23:42;0.90;;;0.20;;
80705;SDS011;70229;48.010;7.852;2024-03-29T04:26:08;2.05;;;0.43;;
80705;SDS011;70229;48.010;7.852;2024-03-29T04:28:34;0.40;;;0.38;;
80705;SDS011;70229;48.010;7.852;2024-03-29T04:31:00;0.80;;;0.40;;
80705;SDS011;70229;48.010;7.852;2024-03-29T04:33:26;0.20;;;0.20;;
80705;SDS011;70229;48.010;7.852;2024-03-29T04:38:27;0.93;;;0.32;;
80705;SDS011;70229;48.010;7.852;2024-03-29T04:40:54;1.02;;;0.30;;
80705;SDS011;70229;48.010;7.852;2024-03-29T04:43:24;1.48;;;0.30;;
80705;SDS011;70229;48.010;7.852;2024-03-29T04:46:01;0.85;;;0.35;;
80705;SDS011;70229;48.010;7.852;2024-03-29T04:51:03;0.30;;;0.20;;
80705;SDS011;70229;48.010;7.852;2024-03-29T04:53:29;1.00;;;0.30;;
80705;SDS011;70229;48.010;7.852;2024-03-29T04:55:55;1.23;;;0.25;;
80705;SDS011;70229;48.010;7.852;2024-03-29T04:58:21;1.02;;;0.30;;
80705;SDS011;70229;48.010;7.852;2024-03-29T05:00:48;2.03;;;0.68;;
80705;SDS011;70229;48.010;7.852;2024-03-29T05:03:14;0.77;;;0.30;;
80705;SDS011;70229;48.010;7.852;2024-03-29T05:05:41;0.73;;;0.20;;
80705;SDS011;70229;48.010;7.852;2024-03-29T05:08:07;2.10;;;0.40;;
80705;SDS011;70229;48.010;7.852;2024-03-29T05:10:32;1.15;;;0.43;;
80705;SDS011;70229;48.010;7.852;2024-03-29T05:12:59;1.17;;;0.57;;
80705;SDS011;70229;48.010;7.852;2024-03-29T05:15:26;1.65;;;0.60;;
80705;SDS011;70229;48.010;7.852;2024-03-29T05:17:51;1.13;;;0.50;;
80705;SDS011;70229;48.010;7.852;2024-03-29T05:20:18;2.33;;;0.57;;
80705;SDS011;70229;48.010;7.852;2024-03-29T05:22:44;3.60;;;0.60;;
80705;SDS011;70229;48.010;7.852;2024-03-29T05:25:10;1.02;;;0.50;;
80705;SDS011;70229;48.010;7.852;2024-03-29T05:27:35;2.78;;;0.80;;
80705;SDS011;70229;48.010;7.852;2024-03-29T05:30:02;2.00;;;0.77;;
80705;SDS011;70229;48.010;7.852;2024-03-29T05:32:48;2.65;;;0.65;;
80705;SDS011;70229;48.010;7.852;2024-03-29T05:35:24;3.28;;;0.77;;
80705;SDS011;70229;48.010;7.852;2024-03-29T05:37:55;2.92;;;1.10;;
80705;SDS011;70229;48.010;7.852;2024-03-29T05:40:21;1.20;;;0.47;;
80705;SDS011;70229;48.010;7.852;2024-03-29T05:42:55;3.17;;;0.50;;
80705;SDS011;70229;48.010;7.852;2024-03-29T05:45:28;1.23;;;0.73;;
80705;SDS011;70229;48.010;7.852;2024-03-29T05:47:55;2.42;;;0.50;;
80705;SDS011;70229;48.010;7.852;2024-03-29T05:50:28;1.30;;;0.50;;
80705;SDS011;70229;48.010;7.852;2024-03-29T05:52:54;1.42;;;0.50;;
80705;SDS011;70229;48.010;7.852;2024-03-29T05:55:26;2.53;;;0.75;;
80705;SDS011;70229;48.010;7.852;2024-03-29T05:57:54;2.95;;;1.05;;
80705;SDS011;70229;48.010;7.852;2024-03-29T06:00:37;1.90;;;0.70;;
80705;SDS011;70229;48.010;7.852;2024-03-29T06:03:14;1.17;;;0.65;;
80705;SDS011;70229;48.010;7.852;2024-03-29T06:06:14;2.22;;;1.08;;
80705;SDS011;70229;48.010;7.852;2024-03-29T06:08:43;6.00;;;1.10;;
80705;SDS011;70229;48.010;7.852;2024-03-29T06:11:16;1.10;;;0.50;;
80705;SDS011;70229;48.010;7.852;2024-03-29T06:13:44;2.28;;;0.70;;
80705;SDS011;70229;48.010;7.852;2024-03-29T06:16:25;1.58;;;0.98;;
80705;SDS011;70229;48.010;7.852;2024-03-29T06:19:13;2.17;;;0.90;;
80705;SDS011;70229;48.010;7.852;2024-03-29T06:21:41;2.33;;;0.88;;
80705;SDS011;70229;48.010;7.852;2024-03-29T06:24:13;3.95;;;1.58;;
80705;SDS011;70229;48.010;7.852;2024-03-29T06:26:50;5.38;;;1.73;;
80705;SDS011;70229;48.010;7.852;2024-03-29T06:29:20;3.65;;;2.10;;
80705;SDS011;70229;48.010;7.852;2024-03-29T06:31:52;2.83;;;1.85;;
80705;SDS011;70229;48.010;7.852;2024-03-29T06:34:18;3.45;;;1.70;;
80705;SDS011;70229;48.010;7.852;2024-03-29T06:36:46;2.78;;;1.52;;
80705;SDS011;70229;48.010;7.852;2024-03-29T06:39:14;3.67;;;1.95;;
80705;SDS011;70229;48.010;7.852;2024-03-29T06:41:39;5.47;;;2.15;;
80705;SDS011;70229;48.010;7.852;2024-03-29T06:44:05;3.70;;;1.67;;
80705;SDS011;70229;48.010;7.852;2024-03-29T06:46:32;2.92;;;1.35;;
80705;SDS011;70229;48.010;7.852;2024-03-29T06:48:59;10.02;;;2.33;;
80705;SDS011;70229;48.010;7.852;2024-03-29T06:52:33;2.25;;;1.00;;
80705;SDS011;70229;48.010;7.852;2024-03-29T07:00:51;4.65;;;1.80;;
80705;SDS011;70229;48.010;7.852;2024-03-29T07:07:10;5.00;;;1.83;;
80705;SDS011;70229;48.010;7.852;2024-03-29T07:10:05;2.83;;;1.05;;
80705;SDS011;70229;48.010;7.852;2024-03-29T07:12:49;3.92;;;1.45;;
80705;SDS011;70229;48.010;7.852;2024-03-29T07:15:24;5.70;;;1.67;;
80705;SDS011;70229;48.010;7.852;2024-03-29T07:17:56;3.58;;;1.23;;
80705;SDS011;70229;48.010;7.852;2024-03-29T07:20:52;3.83;;;1.45;;
80705;SDS011;70229;48.010;7.852;2024-03-29T07:23:34;2.88;;;1.38;;
80705;SDS011;70229;48.010;7.852;2024-03-29T07:26:03;2.88;;;1.02;;
80705;SDS011;70229;48.010;7.852;2024-03-29T07:31:07;4.43;;;1.80;;
80705;SDS011;70229;48.010;7.852;2024-03-29T07:33:42;4.68;;;1.45;;
80705;SDS011;70229;48.010;7.852;2024-03-29T07:36:12;5.38;;;1.70;;
80705;SDS011;70229;48.010;7.852;2024-03-29T07:39:05;4.60;;;1.77;;
80705;SDS011;70229;48.010;7.852;2024-03-29T07:41:34;2.30;;;1.15;;
80705;SDS011;70229;48.010;7.852;2024-03-29T07:52:03;2.03;;;0.40;;
80705;SDS011;70229;48.010;7.852;2024-03-29T08:12:36;2.38;;;0.73;;
80705;SDS011;70229;48.010;7.852;2024-03-29T08:16:11;3.92;;;1.05;;
80705;SDS011;70229;48.010;7.852;2024-03-29T08:22:34;2.53;;;0.70;;
80705;SDS011;70229;48.010;7.852;2024-03-29T08:41:00;1.05;;;0.40;;
80705;SDS011;70229;48.010;7.852;2024-03-29T08:43:39;1.65;;;0.68;;
80705;SDS011;70229;48.010;7.852;2024-03-29T08:46:11;1.05;;;0.50;;
80705;SDS011;70229;48.010;7.852;2024-03-29T08:51:14;1.52;;;0.50;;
80705;SDS011;70229;48.010;7.852;2024-03-29T08:53:40;2.58;;;0.47;;
80705;SDS011;70229;48.010;7.852;2024-03-29T08:56:08;1.77;;;0.80;;
80705;SDS011;70229;48.010;7.852;2024-03-29T08:58:34;1.23;;;0.47;;
80705;SDS011;70229;48.010;7.852;2024-03-29T09:00:59;1.00;;;0.60;;
80705;SDS011;70229;48.010;7.852;2024-03-29T09:03:31;3.22;;;1.02;;
80705;SDS011;70229;48.010;7.852;2024-03-29T09:06:02;2.53;;;0.60;;
80705;SDS011;70229;48.010;7.852;2024-03-29T09:08:28;2.38;;;0.80;;
80705;SDS011;70229;48.010;7.852;2024-03-29T09:10:54;3.25;;;1.52;;
80705;SDS011;70229;48.010;7.852;2024-03-29T09:13:19;3.92;;;1.55;;
80705;SDS011;70229;48.010;7.852;2024-03-29T09:15:45;2.97;;;1.25;;
80705;SDS011;70229;48.010;7.852;2024-03-29T09:18:11;2.53;;;0.70;;
80705;SDS011;70229;48.010;7.852;2024-03-29T09:23:27;2.47;;;1.00;;
80705;SDS011;70229;48.010;7.852;2024-03-29T09:25:57;1.27;;;0.30;;
80705;SDS011;70229;48.010;7.852;2024-03-29T09:28:23;2.30;;;0.70;;
80705;SDS011;70229;48.010;7.852;2024-03-29T09:30:57;2.65;;;1.02;;
80705;SDS011;70229;48.010;7.852;2024-03-29T09:33:27;2.20;;;0.60;;
80705;SDS011;70229;48.010;7.852;2024-03-29T09:35:53;2.50;;;1.10;;
80705;SDS011;70229;48.010;7.852;2024-03-29T09:38:23;2.17;;;0.88;;
80705;SDS011;70229;48.010;7.852;2024-03-29T09:40:59;2.67;;;1.02;;
80705;SDS011;70229;48.010;7.852;2024-03-29T09:43:38;2.88;;;0.90;;
80705;SDS011;70229;48.010;7.852;2024-03-29T09:46:06;3.47;;;0.70;;
80705;SDS011;70229;48.010;7.852;2024-03-29T09:48:39;1.35;;;0.50;;
80705;SDS011;70229;48.010;7.852;2024-03-29T09:51:07;0.98;;;0.57;;
80705;SDS011;70229;48.010;7.852;2024-03-29T09:53:34;1.55;;;0.60;;
80705;SDS011;70229;48.010;7.852;2024-03-29T09:56:01;1.10;;;0.40;;
80705;SDS011;70229;48.010;7.852;2024-03-29T09:58:35;1.15;;;0.60;;
80705;SDS011;70229;48.010;7.852;2024-03-29T10:01:10;1.25;;;0.60;;
80705;SDS011;70229;48.010;7.852;2024-03-29T10:03:39;1.13;;;0.43;;
80705;SDS011;70229;48.010;7.852;2024-03-29T10:06:06;1.52;;;0.85;;
80705;SDS011;70229;48.010;7.852;2024-03-29T10:08:34;1.77;;;0.88;;
80705;SDS011;70229;48.010;7.852;2024-03-29T10:11:08;2.72;;;0.70;;
80705;SDS011;70229;48.010;7.852;2024-03-29T10:13:37;2.25;;;1.13;;
80705;SDS011;70229;48.010;7.852;2024-03-29T10:16:05;3.35;;;0.90;;
80705;SDS011;70229;48.010;7.852;2024-03-29T10:18:31;0.85;;;0.43;;
80705;SDS011;70229;48.010;7.852;2024-03-29T10:21:02;1.65;;;0.73;;
80705;SDS011;70229;48.010;7.852;2024-03-29T10:23:31;3.08;;;0.90;;
80705;SDS011;70229;48.010;7.852;2024-03-29T10:26:05;0.75;;;0.50;;
80705;SDS011;70229;48.010;7.852;2024-03-29T10:28:40;1.55;;;0.75;;
80705;SDS011;70229;48.010;7.852;2024-03-29T10:31:11;1.10;;;0.50;;
80705;SDS011;70229;48.010;7.852;2024-03-29T10:33:45;1.10;;;0.60;;
80705;SDS011;70229;48.010;7.852;2024-03-29T10:36:19;5.53;;;1.00;;
80705;SDS011;70229;48.010;7.852;2024-03-29T10:38:45;1.08;;;0.35;;
80705;SDS011;70229;48.010;7.852;2024-03-29T10:41:12;3.78;;;1.25;;
80705;SDS011;70229;48.010;7.852;2024-03-29T10:43:38;2.67;;;0.52;;
80705;SDS011;70229;48.010;7.852;2024-03-29T10:46:05;2.60;;;0.70;;
80705;SDS011;70229;48.010;7.852;2024-03-29T10:48:31;2.08;;;0.85;;
80705;SDS011;70229;48.010;7.852;2024-03-29T10:51:01;0.70;;;0.47;;
80705;SDS011;70229;48.010;7.852;2024-03-29T10:53:30;2.47;;;0.98;;
80705;SDS011;70229;48.010;7.852;2024-03-29T10:56:00;5.57;;;2.25;;
80705;SDS011;70229;48.010;7.852;2024-03-29T10:58:34;2.08;;;0.88;;
80705;SDS011;70229;48.010;7.852;2024-03-29T11:01:05;1.58;;;0.52;;
80705;SDS011;70229;48.010;7.852;2024-03-29T11:03:47;2.78;;;1.00;;
80705;SDS011;70229;48.010;7.852;2024-03-29T11:08:46;2.45;;;0.60;;
80705;SDS011;70229;48.010;7.852;2024-03-29T11:11:14;3.85;;;1.35;;
80705;SDS011;70229;48.010;7.852;2024-03-29T11:13:56;5.25;;;1.00;;
80705;SDS011;70229;48.010;7.852;2024-03-29T11:16:28;1.70;;;0.70;;
80705;SDS011;70229;48.010;7.852;2024-03-29T11:18:54;2.00;;;0.73;;
80705;SDS011;70229;48.010;7.852;2024-03-29T11:21:20;2.92;;;0.93;;
80705;SDS011;70229;48.010;7.852;2024-03-29T11:23:49;1.02;;;0.65;;
80705;SDS011;70229;48.010;7.852;2024-03-29T11:26:17;1.45;;;0.57;;
80705;SDS011;70229;48.010;7.852;2024-03-29T11:28:52;2.38;;;0.70;;
80705;SDS011;70229;48.010;7.852;2024-03-29T11:31:24;3.17;;;0.80;;
80705;SDS011;70229;48.010;7.852;2024-03-29T11:33:50;1.98;;;0.95;;
80705;SDS011;70229;48.010;7.852;2024-03-29T11:36:24;1.73;;;0.70;;
80705;SDS011;70229;48.010;7.852;2024-03-29T11:38:53;0.85;;;0.38;;
80705;SDS011;70229;48.010;7.852;2024-03-29T11:41:25;2.53;;;0.95;;
80705;SDS011;70229;48.010;7.852;2024-03-29T11:43:57;3.92;;;0.98;;
80705;SDS011;70229;48.010;7.852;2024-03-29T11:46:23;1.70;;;0.82;;
80705;SDS011;70229;48.010;7.852;2024-03-29T11:48:50;3.08;;;0.77;;
80705;SDS011;70229;48.010;7.852;2024-03-29T11:51:17;3.05;;;0.57;;
80705;SDS011;70229;48.010;7.852;2024-03-29T11:53:46;1.67;;;0.60;;
80705;SDS011;70229;48.010;7.852;2024-03-29T11:56:12;2.28;;;0.65;;
80705;SDS011;70229;48.010;7.852;2024-03-29T11:58:38;2.72;;;0.85;;
80705;SDS011;70229;48.010;7.852;2024-03-29T12:01:05;3.55;;;1.13;;
80705;SDS011;70229;48.010;7.852;2024-03-29T13:34:08;2.20;;;0.65;;
80705;SDS011;70229;48.010;7.852;2024-03-29T13:36:42;2.60;;;0.88;;
80705;SDS011;70229;48.010;7.852;2024-03-29T13:39:17;2.30;;;0.50;;
80705;SDS011;70229;48.010;7.852;2024-03-29T13:41:43;2.28;;;0.77;;
80705;SDS011;70229;48.010;7.852;2024-03-29T13:44:08;1.55;;;0.60;;
80705;SDS011;70229;48.010;7.852;2024-03-29T13:46:35;3.08;;;0.90;;
80705;SDS011;70229;48.010;7.852;2024-03-29T13:49:01;2.08;;;0.65;;
80705;SDS011;70229;48.010;7.852;2024-03-29T13:51:28;2.38;;;0.70;;
80705;SDS011;70229;48.010;7.852;2024-03-29T13:53:54;1.25;;;0.70;;
80705;SDS011;70229;48.010;7.852;2024-03-29T13:56:20;1.65;;;0.60;;
80705;SDS011;70229;48.010;7.852;2024-03-29T13:58:46;1.67;;;0.70;;
80705;SDS011;70229;48.010;7.852;2024-03-29T14:01:12;4.22;;;1.00;;
80705;SDS011;70229;48.010;7.852;2024-03-29T14:03:38;3.30;;;1.10;;
80705;SDS011;70229;48.010;7.852;2024-03-29T14:06:04;2.80;;;1.00;;
80705;SDS011;70229;48.010;7.852;2024-03-29T14:08:30;3.55;;;0.68;;
80705;SDS011;70229;48.010;7.852;2024-03-29T14:10:56;2.38;;;0.63;;
80705;SDS011;70229;48.010;7.852;2024-03-29T14:13:22;2.38;;;0.88;;
80705;SDS011;70229;48.010;7.852;2024-03-29T14:15:48;2.72;;;0.55;;
80705;SDS011;70229;48.010;7.852;2024-03-29T14:18:14;2.10;;;0.70;;
80705;SDS011;70229;48.010;7.852;2024-03-29T14:20:40;1.15;;;0.60;;
80705;SDS011;70229;48.010;7.852;2024-03-29T14:23:06;2.17;;;1.05;;
80705;SDS011;70229;48.010;7.852;2024-03-29T14:25:35;3.22;;;0.82;;
80705;SDS011;70229;48.010;7.852;2024-03-29T14:28:02;1.45;;;0.50;;
80705;SDS011;70229;48.010;7.852;2024-03-29T14:30:28;5.88;;;0.95;;
80705;SDS011;70229;48.010;7.852;2024-03-29T14:32:57;6.07;;;1.00;;
80705;SDS011;70229;48.010;7.852;2024-03-29T14:35:27;3.90;;;0.90;;
80705;SDS011;70229;48.010;7.852;2024-03-29T14:37:55;3.45;;;0.90;;
80705;SDS011;70229;48.010;7.852;2024-03-29T14:40:21;2.53;;;0.77;;
80705;SDS011;70229;48.010;7.852;2024-03-29T14:42:47;3.13;;;1.05;;
80705;SDS011;70229;48.010;7.852;2024-03-29T14:45:13;1.40;;;0.70;;
80705;SDS011;70229;48.010;7.852;2024-03-29T14:47:38;1.88;;;0.65;;
80705;SDS011;70229;48.010;7.852;2024-03-29T14:50:04;2.70;;;0.85;;
80705;SDS011;70229;48.010;7.852;2024-03-29T14:52:32;1.48;;;0.50;;
80705;SDS011;70229;48.010;7.852;2024-03-29T14:55:01;1.77;;;0.73;;
80705;SDS011;70229;48.010;7.852;2024-03-29T14:57:27;1.38;;;0.82;;
80705;SDS011;70229;48.010;7.852;2024-03-29T14:59:53;1.67;;;0.60;;
80705;SDS011;70229;48.010;7.852;2024-03-29T15:02:19;3.05;;;1.00;;
80705;SDS011;70229;48.010;7.852;2024-03-29T15:04:44;2.13;;;0.50;;
80705;SDS011;70229;48.010;7.852;2024-03-29T15:07:10;1.70;;;0.75;;
80705;SDS011;70229;48.010;7.852;2024-03-29T15:09:36;1.55;;;0.60;;
80705;SDS011;70229;48.010;7.852;2024-03-29T15:12:02;2.47;;;0.68;;
80705;SDS011;70229;48.010;7.852;2024-03-29T15:14:31;1.67;;;0.77;;
80705;SDS011;70229;48.010;7.852;2024-03-29T15:16:57;1.45;;;0.68;;
80705;SDS011;70229;48.010;7.852;2024-03-29T15:19:22;1.63;;;0.60;;
80705;SDS011;70229;48.010;7.852;2024-03-29T15:21:48;3.55;;;0.88;;
80705;SDS011;70229;48.010;7.852;2024-03-29T15:24:14;1.30;;;0.65;;
80705;SDS011;70229;48.010;7.852;2024-03-29T15:26:40;1.42;;;0.40;;
80705;SDS011;70229;48.010;7.852;2024-03-29T15:29:06;1.33;;;0.70;;
80705;SDS011;70229;48.010;7.852;2024-03-29T15:31:38;1.58;;;0.40;;
80705;SDS011;70229;48.010;7.852;2024-03-29T15:34:05;1.33;;;0.40;;
80705;SDS011;70229;48.010;7.852;2024-03-29T15:36:31;1.67;;;0.60;;
80705;SDS011;70229;48.010;7.852;2024-03-29T15:38:58;3.58;;;0.88;;
80705;SDS011;70229;48.010;7.852;2024-03-29T15:41:34;1.35;;;0.52;;
80705;SDS011;70229;48.010;7.852;2024-03-29T15:44:01;2.58;;;0.93;;
80705;SDS011;70229;48.010;7.852;2024-03-29T15:46:27;2.08;;;0.90;;
80705;SDS011;70229;48.010;7.852;2024-03-29T15:48:54;2.67;;;0.50;;
80705;SDS011;70229;48.010;7.852;2024-03-29T15:51:19;1.17;;;0.57;;
80705;SDS011;70229;48.010;7.852;2024-03-29T15:53:46;1.77;;;0.70;;
80705;SDS011;70229;48.010;7.852;2024-03-29T15:56:12;2.65;;;1.08;;
80705;SDS011;70229;48.010;7.852;2024-03-29T17:18:42;5.13;;;1.92;;
80705;SDS011;70229;48.010;7.852;2024-03-29T17:21:12;5.53;;;2.25;;
80705;SDS011;70229;48.010;7.852;2024-03-29T17:23:59;5.15;;;2.33;;
80705;SDS011;70229;48.010;7.852;2024-03-29T17:30:35;5.90;;;2.88;;
80705;SDS011;70229;48.010;7.852;2024-03-29T17:35:42;4.55;;;2.45;;
80705;SDS011;70229;48.010;7.852;2024-03-29T17:38:53;4.85;;;2.63;;
80705;SDS011;70229;48.010;7.852;2024-03-29T17:41:45;4.78;;;2.58;;
80705;SDS011;70229;48.010;7.852;2024-03-29T17:44:17;6.13;;;2.80;;
